Time;durP1;ratioP1;P1;durP2;ratioP2;P2;SDS_P1;SDS_P2;PMS_P1;PMS_P2;Temp;Humidity;BMP_temperature;BMP_pressure;BME280_temperature;BME280_humidity;BME280_pressure;Samples;Min_cycle;Max_cycle;Signal;HPM_P1;HPM_P2
2023/02/11 00:01:51;;;;;;;25.03;10.73;;;7.40;99.90;;;;;;5112051;28;20085;-79
2023/02/11 00:04:17;;;;;;;24.30;9.60;;;7.30;99.90;;;;;;5094568;28;20020;-79
2023/02/11 00:06:43;;;;;;;23.63;10.00;;;7.30;99.90;;;;;;5077564;28;20085;-79
2023/02/11 00:09:09;;;;;;;23.73;9.90;;;7.30;99.90;;;;;;5111440;28;20035;-78
2023/02/11 00:11:35;;;;;;;20.77;9.70;;;7.30;99.90;;;;;;5094586;28;20098;-78
2023/02/11 00:14:04;;;;;;;21.27;9.57;;;7.30;99.90;;;;;;5094827;28;20021;-78
2023/02/11 00:16:31;;;;;;;18.97;9.00;;;7.30;99.90;;;;;;5095692;28;20030;-78
2023/02/11 00:18:59;;;;;;;19.13;8.57;;;7.30;99.90;;;;;;5095174;28;20518;-78
2023/02/11 00:21:26;;;;;;;25.00;9.40;;;7.30;99.90;;;;;;5077568;28;20055;-78
2023/02/11 00:23:52;;;;;;;23.53;8.13;;;7.30;99.90;;;;;;5094447;28;20044;-78
2023/02/11 00:26:27;;;;;;;16.07;8.17;;;7.30;99.90;;;;;;5094486;28;20488;-78
2023/02/11 00:28:53;;;;;;;25.47;9.30;;;7.30;99.90;;;;;;5095275;28;20099;-79
2023/02/11 00:31:20;;;;;;;18.53;8.73;;;7.30;99.90;;;;;;5094556;28;20115;-78
2023/02/11 00:33:46;;;;;;;21.43;7.87;;;7.30;99.90;;;;;;5094129;28;20074;-79
2023/02/11 00:36:17;;;;;;;24.13;9.03;;;7.30;99.90;;;;;;5093962;28;20484;-76
2023/02/11 00:38:44;;;;;;;20.60;7.87;;;7.30;99.90;;;;;;5094290;28;20066;-77
2023/02/11 00:41:11;;;;;;;17.20;8.23;;;7.30;99.90;;;;;;5095256;28;20028;-77
2023/02/11 00:43:37;;;;;;;28.67;8.93;;;7.30;99.90;;;;;;5093430;28;20024;-77
2023/02/11 00:46:03;;;;;;;28.67;8.63;;;7.30;99.90;;;;;;5077290;28;20115;-77
2023/02/11 00:48:29;;;;;;;23.07;8.10;;;7.30;99.90;;;;;;5076993;28;20063;-77
2023/02/11 00:50:55;;;;;;;17.60;8.33;;;7.30;99.90;;;;;;5093778;28;20052;-77
2023/02/11 00:53:20;;;;;;;31.17;8.37;;;7.30;99.90;;;;;;5077092;28;20457;-76
2023/02/11 00:55:46;;;;;;;28.53;9.47;;;7.20;99.90;;;;;;5076532;28;20035;-77
2023/02/11 00:58:12;;;;;;;17.33;7.10;;;7.30;99.90;;;;;;5094764;28;20115;-76
2023/02/11 01:00:37;;;;;;;17.13;7.67;;;7.30;99.90;;;;;;5093870;28;20032;-76
2023/02/11 01:03:03;;;;;;;25.20;8.00;;;7.30;99.90;;;;;;5094613;28;20512;-76
2023/02/11 01:05:29;;;;;;;24.73;7.77;;;7.30;99.90;;;;;;5093645;28;20132;-76
2023/02/11 01:07:54;;;;;;;23.17;7.20;;;7.30;99.90;;;;;;5076585;28;20402;-76
2023/02/11 01:10:20;;;;;;;25.37;8.87;;;7.30;99.90;;;;;;5076401;28;20024;-76
2023/02/11 01:12:46;;;;;;;19.97;7.93;;;7.30;99.90;;;;;;5093147;28;20346;-76
2023/02/11 01:15:15;;;;;;;24.53;7.50;;;7.30;99.90;;;;;;5092917;28;20046;-76
2023/02/11 01:17:41;;;;;;;23.37;7.73;;;7.30;99.90;;;;;;5092935;28;20028;-77
2023/02/11 01:20:12;;;;;;;26.53;7.07;;;7.30;99.90;;;;;;5094726;28;20040;-76
2023/02/11 01:22:38;;;;;;;18.03;7.13;;;7.30;99.90;;;;;;5092969;28;20026;-76
2023/02/11 01:25:05;;;;;;;20.33;6.87;;;7.30;99.90;;;;;;5093024;28;20348;-76
2023/02/11 01:27:31;;;;;;;19.50;6.60;;;7.30;99.90;;;;;;5094372;28;20024;-77
2023/02/11 01:29:57;;;;;;;20.33;6.60;;;7.30;99.90;;;;;;5093140;28;20092;-76
2023/02/11 01:32:23;;;;;;;17.10;6.67;;;7.30;99.90;;;;;;5076221;28;20555;-78
2023/02/11 01:34:49;;;;;;;17.70;6.37;;;7.30;99.90;;;;;;5092851;28;20091;-78
2023/02/11 01:37:15;;;;;;;28.17;7.10;;;7.20;99.90;;;;;;5092875;28;20040;-78
2023/02/11 01:39:40;;;;;;;17.43;5.60;;;7.20;99.90;;;;;;5092665;28;20474;-78
2023/02/11 01:42:06;;;;;;;20.90;6.63;;;7.20;99.90;;;;;;5093092;28;20487;-78
2023/02/11 01:44:35;;;;;;;18.20;6.43;;;7.20;99.90;;;;;;5093840;28;20039;-76
2023/02/11 01:47:03;;;;;;;19.80;6.47;;;7.20;99.90;;;;;;5094275;28;20036;-76
2023/02/11 01:49:36;;;;;;;27.77;8.30;;;7.10;99.90;;;;;;5093859;28;20383;-76
2023/02/11 01:52:30;;;;;;;21.20;7.03;;;7.20;99.90;;;;;;5093656;28;20469;-76
2023/02/11 01:57:51;;;;;;;22.10;6.47;;;7.20;99.90;;;;;;5093557;28;20094;-76
2023/02/11 02:00:24;;;;;;;23.70;8.13;;;7.10;99.90;;;;;;5092581;28;20379;-76
2023/02/11 02:03:08;;;;;;;19.97;6.30;;;7.10;99.90;;;;;;5093328;28;20079;-76
2023/02/11 02:05:37;;;;;;;19.58;7.18;;;7.20;99.90;;;;;;5093474;28;20379;-76
2023/02/11 02:08:20;;;;;;;19.07;5.93;;;7.20;99.90;;;;;;5093639;28;20150;-76
2023/02/11 02:10:48;;;;;;;20.37;6.47;;;7.20;99.90;;;;;;5093401;28;20383;-76
2023/02/11 02:13:14;;;;;;;17.83;7.60;;;7.20;99.90;;;;;;5091790;28;20020;-76
2023/02/11 02:15:54;;;;;;;21.77;6.40;;;7.20;99.90;;;;;;5075154;28;20575;-76
2023/02/11 02:18:49;;;;;;;26.30;6.50;;;7.20;99.90;;;;;;5093678;28;20373;-76
2023/02/11 02:21:31;;;;;;;17.43;6.57;;;7.20;99.90;;;;;;5092106;28;20048;-76
2023/02/11 02:24:03;;;;;;;22.63;6.53;;;7.20;99.90;;;;;;5126177;27;20032;-76
2023/02/11 02:27:14;;;;;;;21.30;6.80;;;7.20;99.90;;;;;;5113783;27;20119;-76
2023/02/11 02:29:49;;;;;;;26.03;6.73;;;7.20;99.90;;;;;;5088006;28;20047;-77
2023/02/11 02:32:30;;;;;;;22.90;7.00;;;7.20;99.90;;;;;;5071225;28;20027;-76
2023/02/11 02:35:10;;;;;;;13.63;5.73;;;7.20;99.90;;;;;;5088231;28;20028;-77
2023/02/11 02:37:43;;;;;;;18.30;7.27;;;7.20;99.90;;;;;;5088259;28;20032;-77
2023/02/11 02:40:15;;;;;;;17.77;7.03;;;7.20;99.90;;;;;;5105166;28;20060;-77
2023/02/11 02:42:43;;;;;;;28.30;7.17;;;7.20;99.90;;;;;;5072961;28;20096;-77
2023/02/11 02:45:10;;;;;;;20.00;7.30;;;7.20;99.90;;;;;;5071599;28;20025;-76
2023/02/11 02:47:36;;;;;;;22.33;7.27;;;7.10;99.90;;;;;;5071743;28;20155;-77
2023/02/11 02:50:04;;;;;;;21.30;6.57;;;7.10;99.90;;;;;;5088540;28;20050;-77
2023/02/11 02:52:45;;;;;;;18.70;7.07;;;7.10;99.90;;;;;;5072594;28;20024;-77
2023/02/11 02:55:29;;;;;;;18.97;6.47;;;7.10;99.90;;;;;;5088412;28;20025;-77
2023/02/11 02:58:04;;;;;;;22.40;6.22;;;7.10;99.90;;;;;;5071373;28;20052;-77
2023/02/11 03:01:13;;;;;;;17.83;6.13;;;7.10;99.90;;;;;;5088445;28;20032;-76
2023/02/11 03:03:38;;;;;;;22.93;6.93;;;7.00;99.90;;;;;;5064668;28;20037;-76
2023/02/11 03:06:30;;;;;;;18.43;7.10;;;7.10;99.90;;;;;;5092245;28;20029;-76
2023/02/11 03:09:01;;;;;;;26.90;8.00;;;7.00;99.90;;;;;;5074200;28;20444;-77
2023/02/11 03:11:28;;;;;;;22.00;7.43;;;7.00;99.90;;;;;;5076545;28;20495;-76
2023/02/11 03:13:55;;;;;;;28.67;6.97;;;7.00;99.90;;;;;;5075100;28;20027;-76
2023/02/11 03:16:26;;;;;;;20.50;7.00;;;7.00;99.90;;;;;;5075413;28;20025;-77
2023/02/11 03:19:02;;;;;;;24.03;7.87;;;7.00;99.90;;;;;;5075257;28;20113;-76
2023/02/11 03:21:30;;;;;;;21.00;6.97;;;7.00;99.90;;;;;;5076802;28;20103;-77
2023/02/11 03:24:01;;;;;;;23.27;7.97;;;7.00;99.90;;;;;;5075183;28;20021;-77
2023/02/11 03:26:42;;;;;;;15.97;7.53;;;7.00;99.90;;;;;;5075035;28;20020;-76
2023/02/11 03:29:22;;;;;;;21.87;8.53;;;7.00;99.90;;;;;;5076476;28;20042;-76
2023/02/11 03:31:57;;;;;;;29.40;8.37;;;7.00;99.90;;;;;;5075133;28;20024;-77
2023/02/11 03:34:45;;;;;;;20.67;7.67;;;7.00;99.90;;;;;;5074470;28;20024;-76
2023/02/11 03:37:17;;;;;;;21.17;8.43;;;7.00;99.90;;;;;;5108640;28;20078;-76
2023/02/11 03:40:15;;;;;;;17.13;7.97;;;7.00;99.90;;;;;;5091824;28;20078;-76
2023/02/11 03:42:58;;;;;;;26.97;8.20;;;7.00;99.90;;;;;;5083577;28;20119;-76
2023/02/11 03:45:26;;;;;;;24.97;9.97;;;7.00;99.90;;;;;;5074991;28;20024;-76
2023/02/11 03:48:02;;;;;;;22.27;8.27;;;7.00;99.90;;;;;;5093815;28;20073;-77
2023/02/11 03:50:32;;;;;;;26.23;8.80;;;7.00;99.90;;;;;;5096007;28;20503;-76
2023/02/11 03:53:00;;;;;;;22.97;8.27;;;7.00;99.90;;;;;;5095107;28;20016;-76
2023/02/11 03:55:28;;;;;;;21.83;8.57;;;7.00;99.90;;;;;;5094528;28;20028;-77
2023/02/11 03:57:54;;;;;;;23.97;8.63;;;7.00;99.90;;;;;;5096145;28;20544;-76
2023/02/11 04:00:20;;;;;;;25.50;8.20;;;7.00;99.90;;;;;;5094941;28;20032;-76
2023/02/11 04:02:46;;;;;;;20.10;8.80;;;7.00;99.90;;;;;;5077927;28;20459;-76
2023/02/11 04:05:14;;;;;;;28.10;10.33;;;7.00;99.90;;;;;;5094514;28;20028;-76
2023/02/11 04:07:40;;;;;;;28.03;11.07;;;7.00;99.90;;;;;;5093697;28;20016;-76
2023/02/11 04:10:07;;;;;;;23.47;9.73;;;7.00;99.90;;;;;;5094601;28;20085;-77
2023/02/11 04:12:32;;;;;;;25.97;9.37;;;7.00;99.90;;;;;;5093875;28;20020;-76
2023/02/11 04:14:58;;;;;;;27.20;10.93;;;7.00;99.90;;;;;;5093861;28;20028;-76
2023/02/11 04:17:24;;;;;;;23.83;9.23;;;7.00;99.90;;;;;;5094349;28;20032;-76
2023/02/11 04:19:49;;;;;;;27.80;10.07;;;7.00;99.90;;;;;;5095954;28;20048;-76
2023/02/11 04:22:15;;;;;;;27.83;9.73;;;7.00;99.90;;;;;;5128057;27;20103;-76
2023/02/11 04:24:42;;;;;;;25.10;8.63;;;7.00;99.90;;;;;;5077707;28;20027;-77
2023/02/11 04:27:08;;;;;;;22.73;9.20;;;7.10;99.90;;;;;;5094446;28;20020;-77
2023/02/11 04:29:34;;;;;;;22.73;9.30;;;7.10;99.90;;;;;;5094469;28;20020;-76
2023/02/11 04:32:00;;;;;;;30.13;10.17;;;7.10;99.90;;;;;;5128043;27;20480;-76
2023/02/11 04:34:25;;;;;;;24.13;9.63;;;7.10;99.90;;;;;;5094209;28;20081;-76
2023/02/11 04:36:51;;;;;;;29.50;11.10;;;7.10;99.90;;;;;;5076781;28;20028;-76
2023/02/11 04:39:17;;;;;;;26.83;9.67;;;7.10;99.90;;;;;;5111023;28;20044;-77
2023/02/11 04:41:42;;;;;;;24.47;10.47;;;7.10;99.90;;;;;;5094091;28;20055;-76
2023/02/11 04:44:08;;;;;;;28.57;10.00;;;7.00;99.90;;;;;;5110655;28;20227;-76
2023/02/11 04:46:34;;;;;;;27.03;12.50;;;7.10;99.90;;;;;;5093954;28;20028;-76
2023/02/11 04:49:00;;;;;;;23.07;10.80;;;7.10;99.90;;;;;;5128053;27;20031;-76
2023/02/11 04:51:25;;;;;;;29.30;11.33;;;7.10;99.90;;;;;;5127742;27;20024;-77
2023/02/11 04:53:51;;;;;;;26.47;11.50;;;7.10;99.90;;;;;;5093582;28;20020;-77
2023/02/11 04:56:16;;;;;;;23.13;10.40;;;7.10;99.90;;;;;;5093903;28;20414;-76
2023/02/11 04:58:42;;;;;;;32.27;12.17;;;7.10;99.90;;;;;;5093495;28;20036;-77
2023/02/11 05:01:11;;;;;;;22.80;11.87;;;7.10;99.90;;;;;;5093581;28;20137;-77
2023/02/11 05:03:38;;;;;;;30.53;11.30;;;7.10;99.90;;;;;;5093601;28;20020;-77
2023/02/11 05:06:04;;;;;;;21.53;11.60;;;7.10;99.90;;;;;;5094102;28;20112;-77
2023/02/11 05:08:31;;;;;;;28.00;11.60;;;7.10;99.90;;;;;;5094806;28;20016;-77
2023/02/11 05:10:56;;;;;;;30.03;11.60;;;7.10;99.90;;;;;;5093439;28;20026;-77
2023/02/11 05:13:22;;;;;;;24.70;12.07;;;7.10;99.90;;;;;;5093266;28;20119;-77
2023/02/11 05:15:48;;;;;;;27.83;10.80;;;7.10;99.90;;;;;;5127679;27;20388;-76
2023/02/11 05:18:13;;;;;;;26.53;11.40;;;7.10;99.90;;;;;;5093527;28;20040;-77
2023/02/11 05:20:41;;;;;;;23.47;10.90;;;7.10;99.90;;;;;;5094135;28;20176;-77
2023/02/11 05:23:07;;;;;;;32.57;12.70;;;7.10;99.90;;;;;;5094615;28;20055;-76
2023/02/11 05:25:32;;;;;;;24.10;11.03;;;7.10;99.90;;;;;;5094181;28;20027;-76
2023/02/11 05:27:58;;;;;;;26.47;11.37;;;7.10;99.90;;;;;;5110204;28;20024;-76
2023/02/11 05:30:24;;;;;;;29.93;11.70;;;7.10;99.90;;;;;;5127327;27;20392;-77
2023/02/11 05:32:49;;;;;;;27.63;12.67;;;7.10;99.90;;;;;;5092800;28;20030;-76
2023/02/11 05:35:15;;;;;;;27.80;11.93;;;7.10;99.90;;;;;;5127245;27;20032;-76
2023/02/11 05:37:41;;;;;;;31.10;11.83;;;7.10;99.90;;;;;;5109116;28;20044;-77
2023/02/11 05:40:07;;;;;;;30.27;12.43;;;7.10;99.90;;;;;;5110258;28;20119;-76
2023/02/11 05:42:33;;;;;;;27.37;12.60;;;7.10;99.90;;;;;;5092662;28;20499;-76
2023/02/11 05:44:58;;;;;;;30.67;12.93;;;7.00;99.90;;;;;;5110084;28;20028;-76
2023/02/11 05:47:24;;;;;;;24.93;13.17;;;7.00;99.90;;;;;;5109908;28;20035;-77
2023/02/11 05:49:52;;;;;;;31.97;14.20;;;7.10;99.90;;;;;;5093669;28;20431;-76
2023/02/11 05:52:18;;;;;;;27.00;13.17;;;7.10;99.90;;;;;;5094011;28;20056;-76
2023/02/11 05:54:44;;;;;;;32.43;13.40;;;7.10;99.90;;;;;;5110020;28;20035;-76
2023/02/11 05:57:10;;;;;;;22.73;11.70;;;7.10;99.90;;;;;;5109531;28;20028;-76
2023/02/11 05:59:35;;;;;;;30.47;13.07;;;7.00;99.90;;;;;;5092663;28;20032;-76
2023/02/11 06:02:01;;;;;;;30.83;11.97;;;7.10;99.90;;;;;;5092562;28;20032;-76
2023/02/11 06:04:27;;;;;;;27.83;13.63;;;7.10;99.90;;;;;;5109040;28;20032;-76
2023/02/11 06:06:52;;;;;;;28.87;14.10;;;7.10;99.90;;;;;;5126567;27;20056;-77
2023/02/11 06:09:18;;;;;;;26.00;13.27;;;7.10;99.90;;;;;;5114630;27;20105;-77
2023/02/11 06:11:44;;;;;;;29.37;13.80;;;7.10;99.90;;;;;;5070919;28;20411;-76
2023/02/11 06:14:09;;;;;;;34.13;13.30;;;7.10;99.90;;;;;;5054063;28;20032;-77
2023/02/11 06:16:35;;;;;;;27.87;12.97;;;7.10;99.90;;;;;;5054120;28;20073;-77
2023/02/11 06:19:01;;;;;;;31.57;13.20;;;7.10;99.90;;;;;;5088823;28;20136;-77
2023/02/11 06:21:27;;;;;;;28.10;13.77;;;7.10;99.90;;;;;;5055552;28;20048;-76
2023/02/11 06:23:53;;;;;;;31.10;15.27;;;7.10;99.90;;;;;;5087654;28;20040;-77
2023/02/11 06:26:20;;;;;;;31.70;14.03;;;7.10;99.90;;;;;;5061693;28;20359;-77
2023/02/11 06:28:46;;;;;;;28.63;15.10;;;7.10;99.90;;;;;;5059303;28;20040;-77
2023/02/11 06:31:13;;;;;;;34.10;16.13;;;7.10;99.90;;;;;;5073794;28;20028;-77
2023/02/11 06:33:39;;;;;;;36.70;16.73;;;7.10;99.90;;;;;;5071900;28;20024;-76
2023/02/11 06:36:14;;;;;;;33.07;16.37;;;7.10;99.90;;;;;;5104799;28;20027;-76
2023/02/11 06:38:40;;;;;;;38.77;17.03;;;7.10;99.90;;;;;;5071744;28;20032;-76
2023/02/11 06:41:08;;;;;;;36.87;16.27;;;7.10;99.90;;;;;;5077151;28;20024;-76
2023/02/11 06:43:34;;;;;;;31.63;15.87;;;7.10;99.90;;;;;;5090101;28;20035;-76
2023/02/11 06:46:00;;;;;;;36.07;17.43;;;7.10;99.90;;;;;;5069967;28;20032;-77
2023/02/11 06:48:25;;;;;;;33.77;16.27;;;7.10;99.90;;;;;;5088605;28;20029;-76
2023/02/11 06:50:51;;;;;;;34.33;16.10;;;7.10;99.90;;;;;;5087695;28;20039;-77
2023/02/11 06:53:16;;;;;;;30.30;15.00;;;7.10;99.90;;;;;;5102208;28;20039;-77
2023/02/11 06:55:42;;;;;;;39.33;18.77;;;7.00;99.90;;;;;;5069482;28;20432;-77
2023/02/11 06:58:08;;;;;;;45.30;19.00;;;7.10;99.90;;;;;;5104446;28;20480;-77
2023/02/11 07:00:33;;;;;;;42.27;17.93;;;7.10;99.90;;;;;;5105331;28;20484;-77
2023/02/11 07:02:59;;;;;;;39.20;18.67;;;7.10;99.90;;;;;;5105190;28;20024;-77
2023/02/11 07:05:24;;;;;;;54.57;20.17;;;7.10;99.90;;;;;;5105264;28;20028;-77
2023/02/11 07:07:50;;;;;;;36.97;17.40;;;7.10;99.90;;;;;;5088386;28;20024;-77
2023/02/11 07:10:16;;;;;;;37.63;17.57;;;7.10;99.90;;;;;;5105757;28;20073;-77
2023/02/11 07:12:41;;;;;;;38.30;18.17;;;7.10;99.90;;;;;;5105584;28;20045;-77
2023/02/11 07:15:07;;;;;;;39.17;18.90;;;7.10;99.90;;;;;;5105369;28;20029;-77
2023/02/11 07:17:34;;;;;;;43.77;18.40;;;7.10;99.90;;;;;;5105246;28;20032;-77
2023/02/11 07:20:00;;;;;;;39.17;19.17;;;7.10;99.90;;;;;;5088223;28;20056;-77
2023/02/11 07:22:25;;;;;;;42.70;19.50;;;7.10;99.90;;;;;;5085540;28;20419;-77
2023/02/11 07:24:51;;;;;;;49.03;20.27;;;7.10;99.90;;;;;;5065846;28;20476;-77
2023/02/11 07:27:16;;;;;;;37.83;20.37;;;7.20;99.90;;;;;;5091284;28;20472;-78
2023/02/11 07:29:44;;;;;;;40.73;20.37;;;7.20;99.90;;;;;;5071131;28;20523;-78
2023/02/11 07:32:10;;;;;;;50.33;23.57;;;7.20;99.90;;;;;;5093395;28;20447;-77
2023/02/11 07:34:36;;;;;;;42.90;20.70;;;7.20;99.90;;;;;;5067766;28;20028;-77
2023/02/11 07:37:01;;;;;;;39.37;20.73;;;7.20;99.90;;;;;;5090521;28;20074;-77
2023/02/11 07:39:28;;;;;;;40.27;19.67;;;7.20;99.90;;;;;;5090310;28;20090;-77
2023/02/11 07:41:54;;;;;;;45.37;21.60;;;7.20;99.90;;;;;;5091294;28;20388;-77
2023/02/11 07:44:20;;;;;;;41.03;20.53;;;7.30;99.90;;;;;;5091461;28;20066;-77
2023/02/11 07:46:47;;;;;;;49.37;21.77;;;7.30;99.90;;;;;;5090362;28;20036;-77
2023/02/11 07:49:14;;;;;;;46.80;22.00;;;7.30;99.90;;;;;;5072062;28;20038;-78
2023/02/11 07:51:39;;;;;;;43.87;20.27;;;7.30;99.90;;;;;;5108065;28;20033;-77
2023/02/11 07:54:05;;;;;;;41.27;19.23;;;7.40;99.90;;;;;;5113627;27;20070;-77
2023/02/11 07:56:31;;;;;;;42.80;21.50;;;7.30;99.90;;;;;;5094571;28;20076;-77
2023/02/11 07:59:00;;;;;;;43.33;20.10;;;7.40;99.90;;;;;;5091464;28;20071;-78
2023/02/11 08:01:27;;;;;;;46.00;23.10;;;7.40;99.90;;;;;;5095036;28;20024;-78
2023/02/11 08:03:55;;;;;;;50.17;23.53;;;7.40;99.90;;;;;;5077869;28;20035;-77
2023/02/11 08:06:23;;;;;;;46.70;23.17;;;7.40;99.90;;;;;;5094186;28;20028;-77
2023/02/11 08:08:48;;;;;;;50.47;24.27;;;7.50;99.90;;;;;;5094523;28;20130;-77
2023/02/11 08:11:18;;;;;;;56.63;25.27;;;7.50;99.90;;;;;;5094566;28;20060;-77
2023/02/11 08:13:44;;;;;;;54.13;26.47;;;7.50;99.90;;;;;;5095101;28;20030;-77
2023/02/11 08:16:19;;;;;;;57.83;26.13;;;7.50;99.90;;;;;;5095990;28;20024;-78
2023/02/11 08:18:45;;;;;;;53.93;25.73;;;7.50;99.90;;;;;;5095630;28;20476;-77
2023/02/11 08:21:11;;;;;;;51.20;25.50;;;7.60;99.90;;;;;;5095334;28;20052;-78
2023/02/11 08:23:38;;;;;;;58.10;26.97;;;7.50;99.90;;;;;;5077024;28;20089;-78
2023/02/11 08:26:06;;;;;;;50.40;26.43;;;7.60;99.90;;;;;;5093716;28;20024;-78
2023/02/11 08:28:34;;;;;;;53.87;26.73;;;7.50;99.90;;;;;;5093734;28;20031;-78
2023/02/11 08:31:05;;;;;;;51.27;25.10;;;7.50;99.90;;;;;;5093982;28;20077;-78
2023/02/11 08:33:31;;;;;;;49.23;24.13;;;7.60;99.90;;;;;;5094418;28;20028;-78
2023/02/11 08:35:57;;;;;;;56.27;26.83;;;7.60;99.90;;;;;;5127813;27;20024;-78
2023/02/11 08:38:23;;;;;;;53.67;25.37;;;7.70;99.90;;;;;;5127946;27;20047;-78
2023/02/11 08:40:48;;;;;;;47.93;25.50;;;7.70;99.90;;;;;;5128437;27;20042;-78
2023/02/11 08:43:14;;;;;;;51.47;26.80;;;7.70;99.90;;;;;;5119554;27;20035;-77
2023/02/11 08:45:40;;;;;;;54.70;27.73;;;7.70;99.90;;;;;;5093974;28;20032;-77
2023/02/11 08:48:05;;;;;;;54.20;25.97;;;7.70;99.90;;;;;;5101379;28;20039;-77
2023/02/11 08:50:31;;;;;;;59.47;27.53;;;7.80;99.90;;;;;;5093719;28;20037;-78
2023/02/11 08:52:57;;;;;;;51.90;26.43;;;7.80;99.90;;;;;;5093915;28;20028;-78
2023/02/11 08:55:22;;;;;;;52.90;27.73;;;7.80;99.90;;;;;;5093933;28;20422;-78
2023/02/11 08:57:48;;;;;;;57.07;29.20;;;7.80;99.90;;;;;;5076992;28;20495;-77
2023/02/11 09:00:15;;;;;;;67.97;30.53;;;7.90;99.90;;;;;;5076120;28;20114;-78
2023/02/11 09:02:40;;;;;;;61.93;30.63;;;7.90;99.90;;;;;;5093317;28;20551;-78
2023/02/11 09:05:07;;;;;;;65.70;30.07;;;8.00;99.90;;;;;;5093599;28;20066;-78
2023/02/11 09:07:32;;;;;;;60.77;28.80;;;8.00;99.90;;;;;;5110364;28;20123;-78
2023/02/11 09:09:58;;;;;;;56.37;30.43;;;8.00;99.90;;;;;;5110315;28;20078;-78
2023/02/11 09:12:23;;;;;;;59.53;30.37;;;8.00;99.90;;;;;;5127628;27;20028;-78
2023/02/11 09:14:49;;;;;;;64.50;32.73;;;8.00;99.90;;;;;;5110132;28;20499;-78
2023/02/11 09:17:15;;;;;;;68.13;31.33;;;8.00;99.90;;;;;;5093308;28;20024;-78
2023/02/11 09:19:40;;;;;;;63.33;31.47;;;8.10;99.90;;;;;;5086141;28;20438;-78
2023/02/11 09:22:06;;;;;;;61.90;31.20;;;8.10;99.90;;;;;;5083628;28;20421;-78
2023/02/11 09:24:32;;;;;;;58.73;31.10;;;8.10;99.90;;;;;;5092010;28;20032;-78
2023/02/11 09:26:57;;;;;;;61.43;31.53;;;8.10;99.90;;;;;;5093048;28;20032;-78
2023/02/11 09:29:23;;;;;;;63.50;30.47;;;8.20;99.90;;;;;;5093294;28;20376;-78
2023/02/11 09:31:49;;;;;;;63.03;32.00;;;8.20;99.90;;;;;;5110079;28;20024;-78
2023/02/11 09:34:14;;;;;;;59.97;31.87;;;8.20;99.90;;;;;;5104100;28;20099;-78
2023/02/11 09:36:41;;;;;;;62.00;31.77;;;8.20;99.90;;;;;;5089434;28;20031;-77
2023/02/11 09:39:11;;;;;;;67.63;34.70;;;8.30;99.90;;;;;;5073085;28;20032;-78
2023/02/11 09:42:07;;;;;;;72.47;34.73;;;8.30;99.90;;;;;;5090633;28;20123;-78
2023/02/11 09:44:35;;;;;;;64.80;34.23;;;8.30;99.90;;;;;;5093634;28;20051;-78
2023/02/11 09:47:05;;;;;;;66.20;32.63;;;8.40;99.90;;;;;;5094427;28;20020;-77
2023/02/11 09:49:45;;;;;;;68.33;33.93;;;8.40;99.90;;;;;;5092917;28;20115;-78
2023/02/11 09:52:27;;;;;;;63.00;34.80;;;8.40;99.90;;;;;;5092881;28;20398;-78
2023/02/11 09:54:56;;;;;;;67.37;31.60;;;8.50;99.90;;;;;;5094160;28;20024;-78
2023/02/11 09:57:30;;;;;;;62.87;31.13;;;8.50;99.90;;;;;;5092649;28;20024;-78
2023/02/11 09:59:56;;;;;;;58.13;31.85;;;8.50;99.90;;;;;;5093394;28;20047;-78
2023/02/11 10:03:02;;;;;;;68.93;32.37;;;8.50;99.90;;;;;;5109655;28;20074;-78
2023/02/11 10:05:46;;;;;;;66.07;32.63;;;8.60;99.90;;;;;;5092585;28;20162;-78
2023/02/11 10:08:34;;;;;;;61.15;30.27;;;8.60;99.90;;;;;;5092275;28;20049;-78
2023/02/11 10:11:27;;;;;;;63.37;33.43;;;8.60;99.90;;;;;;5091157;28;20384;-78
2023/02/11 10:14:16;;;;;;;61.93;32.33;;;8.60;99.90;;;;;;5087248;28;20043;-78
2023/02/11 10:17:25;;;;;;;58.50;31.40;;;8.70;99.90;;;;;;5072356;28;20040;-79
2023/02/11 10:20:13;;;;;;;55.20;31.13;;;8.70;99.90;;;;;;5085957;28;20099;-77
2023/02/11 10:22:53;;;;;;;60.23;31.60;;;8.70;99.90;;;;;;5091974;28;20032;-79
2023/02/11 10:25:21;;;;;;;54.33;30.40;;;8.70;99.90;;;;;;5091655;28;20075;-78
2023/02/11 10:27:48;;;;;;;62.67;32.17;;;8.80;99.90;;;;;;5092929;28;20024;-78
2023/02/11 10:30:26;;;;;;;48.30;29.47;;;8.80;99.90;;;;;;5097550;28;20499;-78
2023/02/11 10:32:58;;;;;;;58.63;30.70;;;8.80;99.90;;;;;;5091915;28;20425;-78
2023/02/11 10:35:25;;;;;;;55.63;31.47;;;8.80;99.90;;;;;;5093010;28;20028;-78
2023/02/11 10:37:52;;;;;;;52.03;28.10;;;8.80;99.90;;;;;;5107376;28;20043;-78
2023/02/11 10:40:22;;;;;;;45.87;28.57;;;8.90;99.90;;;;;;5091497;28;20403;-78
2023/02/11 10:42:51;;;;;;;60.07;31.43;;;9.00;99.90;;;;;;5093357;28;20074;-78
2023/02/11 10:45:36;;;;;;;50.40;31.27;;;9.00;99.90;;;;;;5093161;28;20035;-77
2023/02/11 10:48:26;;;;;;;58.47;32.77;;;9.00;99.90;;;;;;5092803;28;20028;-78
2023/02/11 10:51:11;;;;;;;56.87;29.33;;;9.00;99.90;;;;;;5090495;28;20027;-78
2023/02/11 10:53:37;;;;;;;62.47;31.80;;;9.10;99.90;;;;;;5113414;27;20281;-77
2023/02/11 10:56:05;;;;;;;50.50;31.07;;;9.10;99.90;;;;;;5091377;28;20111;-78
2023/02/11 10:58:39;;;;;;;46.77;29.33;;;9.20;99.90;;;;;;5091138;28;20040;-78
2023/02/11 11:01:05;;;;;;;;;;;9.20;99.90;;;;;;5093578;28;20032;-78
2023/02/11 11:03:46;;;;;;;56.03;28.50;;;9.30;99.90;;;;;;5091447;28;19904;-78
2023/02/11 11:06:12;;;;;;;48.77;29.17;;;9.30;99.90;;;;;;5091637;28;20028;-78
2023/02/11 11:08:42;;;;;;;46.10;27.17;;;9.40;99.90;;;;;;5091324;28;20024;-78
2023/02/11 11:11:16;;;;;;;47.57;26.20;;;9.40;99.90;;;;;;5091799;28;20077;-78
2023/02/11 11:13:51;;;;;;;;;;;9.50;99.90;;;;;;5126564;27;20484;-78
2023/02/11 11:16:37;;;;;;;38.67;23.63;;;9.70;99.90;;;;;;5091637;28;19904;-80
2023/02/11 11:19:05;;;;;;;43.23;25.67;;;9.80;99.90;;;;;;5091804;28;20063;-79
2023/02/11 11:21:47;;;;;;;37.43;23.20;;;9.90;99.90;;;;;;5092727;28;20056;-78
2023/02/11 11:24:24;;;;;;;40.47;23.20;;;10.10;99.90;;;;;;5095385;28;20115;-78
2023/02/11 11:26:53;;;;;;;40.60;24.53;;;10.10;99.90;;;;;;5097507;28;20024;-79
2023/02/11 11:29:31;;;;;;;42.23;26.00;;;10.10;99.90;;;;;;5095437;28;20377;-79
2023/02/11 11:32:00;;;;;;;40.33;23.20;;;10.10;99.90;;;;;;5096912;28;20084;-78
2023/02/11 11:34:27;;;;;;;39.77;23.43;;;10.10;99.90;;;;;;5094899;28;20024;-78
2023/02/11 11:36:55;;;;;;;41.10;22.47;;;10.00;99.90;;;;;;5095947;28;20024;-79
2023/02/11 11:39:33;;;;;;;38.23;21.93;;;10.00;99.90;;;;;;5096341;28;20044;-78
2023/02/11 11:42:02;;;;;;;35.53;21.40;;;10.00;99.90;;;;;;5096756;28;20028;-78
2023/02/11 11:44:36;;;;;;;34.37;20.30;;;10.10;99.90;;;;;;5096673;28;20051;-78
2023/02/11 11:47:10;;;;;;;37.73;21.27;;;10.20;99.90;;;;;;5095545;28;20016;-79
2023/02/11 11:49:52;;;;;;;32.23;19.57;;;10.30;99.90;;;;;;5096433;28;20028;-78
2023/02/11 11:52:47;;;;;;;36.87;18.43;;;10.40;99.90;;;;;;5094776;28;20494;-79
2023/02/11 11:55:35;;;;;;;27.67;16.23;;;10.60;99.90;;;;;;5095454;28;20024;-79
2023/02/11 11:58:01;;;;;;;24.00;15.23;;;10.60;99.90;;;;;;5096002;28;20490;-79
2023/02/11 12:00:41;;;;;;;30.53;17.00;;;10.70;99.90;;;;;;5096098;28;20115;-78
2023/02/11 12:03:34;;;;;;;28.23;16.97;;;10.80;99.90;;;;;;5094761;28;20085;-79
2023/02/11 12:06:25;;;;;;;25.73;15.80;;;10.90;99.90;;;;;;5094113;28;20476;-78
2023/02/11 12:09:08;;;;;;;23.60;14.93;;;11.20;99.90;;;;;;5094422;28;20027;-78
2023/02/11 12:11:57;;;;;;;19.77;13.20;;;11.50;99.90;;;;;;5094132;28;20036;-78
2023/02/11 12:15:01;;;;;;;20.50;13.30;;;11.70;99.90;;;;;;5074008;28;20046;-78
2023/02/11 12:17:47;;;;;;;22.23;12.95;;;12.00;99.90;;;;;;5065804;28;20089;-78
2023/02/11 12:20:42;;;;;;;22.10;12.00;;;12.30;99.90;;;;;;5094453;28;20048;-78
2023/02/11 12:23:26;;;;;;;;;;;12.40;99.90;;;;;;5094032;28;20392;-78
2023/02/11 12:26:12;;;;;;;21.38;12.90;;;12.50;99.30;;;;;;5093926;28;20469;-78
2023/02/11 12:29:07;;;;;;;20.08;11.80;;;12.80;98.80;;;;;;5094562;28;20533;-78
2023/02/11 12:31:45;;;;;;;16.45;10.00;;;13.20;98.90;;;;;;5093874;28;20027;-78
2023/02/11 12:34:25;;;;;;;17.42;10.93;;;13.60;97.50;;;;;;5093261;28;20066;-79
2023/02/11 12:37:08;;;;;;;22.00;10.68;;;14.00;96.00;;;;;;5093905;28;20028;-79
2023/02/11 12:40:07;;;;;;;19.85;10.73;;;14.00;93.80;;;;;;5094823;28;20036;-78
2023/02/11 12:46:01;;;;;;;20.25;10.93;;;13.70;91.20;;;;;;5095086;28;20101;-78
2023/02/11 12:48:39;;;;;;;21.45;12.35;;;13.50;90.60;;;;;;5093838;28;20036;-78
2023/02/11 12:51:10;;;;;;;19.88;12.07;;;13.30;90.70;;;;;;5092402;28;20084;-78
2023/02/11 12:54:05;;;;;;;18.85;10.80;;;13.20;90.90;;;;;;5094226;28;20145;-78
2023/02/11 12:56:38;;;;;;;21.60;11.85;;;13.10;91.10;;;;;;5075240;28;20582;-78
2023/02/11 12:59:12;;;;;;;15.00;9.02;;;13.20;90.90;;;;;;5087553;28;20039;-78
2023/02/11 13:01:43;;;;;;;19.52;10.75;;;13.20;90.90;;;;;;5093193;28;20070;-78
2023/02/11 13:04:44;;;;;;;18.92;10.35;;;13.40;90.80;;;;;;5091587;28;20059;-78
2023/02/11 13:07:39;;;;;;;18.88;9.70;;;13.40;90.30;;;;;;5059191;28;20040;-78